sensor_id;sensor_type;location;lat;lon;timestamp;temperature;humidity
38902;DHT22;24661;53.566;9.910;2023-08-12T00:01:55;20.30;99.90
38902;DHT22;24661;53.566;9.910;2023-08-12T00:04:21;20.20;99.90
38902;DHT22;24661;53.566;9.910;2023-08-12T00:06:48;20.20;99.90
38902;DHT22;24661;53.566;9.910;2023-08-12T00:09:13;20.10;99.90
38902;DHT22;24661;53.566;9.910;2023-08-12T00:11:40;20.20;99.90
38902;DHT22;24661;53.566;9.910;2023-08-12T00:14:06;20.20;99.90
38902;DHT22;24661;53.566;9.910;2023-08-12T00:16:32;20.20;99.90
38902;DHT22;24661;53.566;9.910;2023-08-12T00:18:57;20.10;99.90
38902;DHT22;24661;53.566;9.910;2023-08-12T00:21:24;20.10;99.90
38902;DHT22;24661;53.566;9.910;2023-08-12T00:23:50;20.10;99.90
38902;DHT22;24661;53.566;9.910;2023-08-12T00:26:16;20.10;99.90
38902;DHT22;24661;53.566;9.910;2023-08-12T00:28:41;20.00;99.90
38902;DHT22;24661;53.566;9.910;2023-08-12T00:31:07;20.00;99.90
38902;DHT22;24661;53.566;9.910;2023-08-12T00:33:33;20.00;99.90
38902;DHT22;24661;53.566;9.910;2023-08-12T00:35:59;20.00;99.90
38902;DHT22;24661;53.566;9.910;2023-08-12T00:38:25;20.00;99.90
38902;DHT22;24661;53.566;9.910;2023-08-12T00:40:50;20.00;99.90
38902;DHT22;24661;53.566;9.910;2023-08-12T00:43:16;20.00;99.90
38902;DHT22;24661;53.566;9.910;2023-08-12T00:45:42;20.00;99.90
38902;DHT22;24661;53.566;9.910;2023-08-12T00:48:08;20.00;99.90
38902;DHT22;24661;53.566;9.910;2023-08-12T00:50:36;19.90;99.90
38902;DHT22;24661;53.566;9.910;2023-08-12T00:53:02;20.20;99.90
38902;DHT22;24661;53.566;9.910;2023-08-12T00:55:28;19.90;99.90
38902;DHT22;24661;53.566;9.910;2023-08-12T00:57:53;19.90;99.90
38902;DHT22;24661;53.566;9.910;2023-08-12T01:00:19;19.90;99.90
38902;DHT22;24661;53.566;9.910;2023-08-12T01:02:47;19.80;99.90
38902;DHT22;24661;53.566;9.910;2023-08-12T01:05:14;19.80;99.90
38902;DHT22;24661;53.566;9.910;2023-08-12T01:07:41;19.80;99.90
38902;DHT22;24661;53.566;9.910;2023-08-12T01:10:07;19.80;99.90
38902;DHT22;24661;53.566;9.910;2023-08-12T01:12:44;19.70;99.90
38902;DHT22;24661;53.566;9.910;2023-08-12T01:15:15;19.70;99.90
38902;DHT22;24661;53.566;9.910;2023-08-12T01:17:42;19.70;99.90
38902;DHT22;24661;53.566;9.910;2023-08-12T01:20:09;19.70;99.90
38902;DHT22;24661;53.566;9.910;2023-08-12T01:22:38;19.70;99.90
38902;DHT22;24661;53.566;9.910;2023-08-12T01:25:08;19.60;99.90
38902;DHT22;24661;53.566;9.910;2023-08-12T01:27:35;19.60;99.90
38902;DHT22;24661;53.566;9.910;2023-08-12T01:30:02;19.90;99.90
38902;DHT22;24661;53.566;9.910;2023-08-12T01:35:29;19.40;99.90
38902;DHT22;24661;53.566;9.910;2023-08-12T01:37:57;19.40;99.90
38902;DHT22;24661;53.566;9.910;2023-08-12T01:40:24;19.20;99.90
38902;DHT22;24661;53.566;9.910;2023-08-12T01:42:50;19.30;99.90
38902;DHT22;24661;53.566;9.910;2023-08-12T01:45:18;19.30;99.90
38902;DHT22;24661;53.566;9.910;2023-08-12T01:47:44;19.30;99.90
38902;DHT22;24661;53.566;9.910;2023-08-12T01:50:10;19.50;99.90
38902;DHT22;24661;53.566;9.910;2023-08-12T01:52:35;19.20;99.90
38902;DHT22;24661;53.566;9.910;2023-08-12T01:55:01;19.70;99.90
38902;DHT22;24661;53.566;9.910;2023-08-12T01:57:27;19.20;99.90
38902;DHT22;24661;53.566;9.910;2023-08-12T01:59:52;19.00;99.90
38902;DHT22;24661;53.566;9.910;2023-08-12T02:02:18;19.10;99.90
38902;DHT22;24661;53.566;9.910;2023-08-12T02:04:43;19.10;99.90
38902;DHT22;24661;53.566;9.910;2023-08-12T02:07:11;19.10;99.90
38902;DHT22;24661;53.566;9.910;2023-08-12T02:09:36;19.10;99.90
38902;DHT22;24661;53.566;9.910;2023-08-12T02:12:02;19.00;99.90
38902;DHT22;24661;53.566;9.910;2023-08-12T02:14:27;19.00;99.90
38902;DHT22;24661;53.566;9.910;2023-08-12T02:16:53;19.00;99.90
38902;DHT22;24661;53.566;9.910;2023-08-12T02:19:18;19.00;99.90
38902;DHT22;24661;53.566;9.910;2023-08-12T02:21:44;18.90;99.90
38902;DHT22;24661;53.566;9.910;2023-08-12T02:24:10;19.00;99.90
38902;DHT22;24661;53.566;9.910;2023-08-12T02:26:37;18.90;99.90
38902;DHT22;24661;53.566;9.910;2023-08-12T02:29:03;19.00;99.90
38902;DHT22;24661;53.566;9.910;2023-08-12T02:31:29;18.90;99.90
38902;DHT22;24661;53.566;9.910;2023-08-12T02:33:54;18.80;99.90
38902;DHT22;24661;53.566;9.910;2023-08-12T02:36:20;18.80;99.90
38902;DHT22;24661;53.566;9.910;2023-08-12T02:38:45;18.80;99.90
38902;DHT22;24661;53.566;9.910;2023-08-12T02:41:11;18.80;99.90
38902;DHT22;24661;53.566;9.910;2023-08-12T02:43:37;18.80;99.90
38902;DHT22;24661;53.566;9.910;2023-08-12T02:46:02;18.70;99.90
38902;DHT22;24661;53.566;9.910;2023-08-12T02:48:28;18.70;99.90
38902;DHT22;24661;53.566;9.910;2023-08-12T02:50:53;18.70;99.90
38902;DHT22;24661;53.566;9.910;2023-08-12T02:53:19;18.70;99.90
38902;DHT22;24661;53.566;9.910;2023-08-12T02:55:45;18.70;99.90
38902;DHT22;24661;53.566;9.910;2023-08-12T02:58:10;18.80;99.90
38902;DHT22;24661;53.566;9.910;2023-08-12T03:00:36;18.80;99.90
38902;DHT22;24661;53.566;9.910;2023-08-12T03:03:02;18.70;99.90
38902;DHT22;24661;53.566;9.910;2023-08-12T03:05:30;18.70;99.90
38902;DHT22;24661;53.566;9.910;2023-08-12T03:07:57;18.70;99.90
38902;DHT22;24661;53.566;9.910;2023-08-12T03:10:26;18.60;99.90
38902;DHT22;24661;53.566;9.910;2023-08-12T03:12:52;18.70;99.90
38902;DHT22;24661;53.566;9.910;2023-08-12T03:15:19;18.60;99.90
38902;DHT22;24661;53.566;9.910;2023-08-12T03:17:44;18.60;99.90
38902;DHT22;24661;53.566;9.910;2023-08-12T03:20:10;19.50;99.90
38902;DHT22;24661;53.566;9.910;2023-08-12T03:22:36;18.60;99.90
38902;DHT22;24661;53.566;9.910;2023-08-12T03:25:03;18.60;99.90
38902;DHT22;24661;53.566;9.910;2023-08-12T03:27:29;18.60;99.90
38902;DHT22;24661;53.566;9.910;2023-08-12T03:29:55;18.60;99.90
38902;DHT22;24661;53.566;9.910;2023-08-12T03:32:21;18.60;99.90
38902;DHT22;24661;53.566;9.910;2023-08-12T03:34:46;18.50;99.90
38902;DHT22;24661;53.566;9.910;2023-08-12T03:37:12;19.20;99.90
38902;DHT22;24661;53.566;9.910;2023-08-12T03:39:37;19.40;99.90
38902;DHT22;24661;53.566;9.910;2023-08-12T03:42:03;18.40;99.90
38902;DHT22;24661;53.566;9.910;2023-08-12T03:44:29;18.40;99.90
38902;DHT22;24661;53.566;9.910;2023-08-12T03:46:54;18.30;99.90
38902;DHT22;24661;53.566;9.910;2023-08-12T03:49:20;18.40;99.90
38902;DHT22;24661;53.566;9.910;2023-08-12T03:51:45;18.20;99.90
38902;DHT22;24661;53.566;9.910;2023-08-12T03:54:11;18.20;99.90
38902;DHT22;24661;53.566;9.910;2023-08-12T03:56:36;18.10;99.90
38902;DHT22;24661;53.566;9.910;2023-08-12T03:59:02;18.80;99.90
38902;DHT22;24661;53.566;9.910;2023-08-12T04:01:27;18.10;99.90
38902;DHT22;24661;53.566;9.910;2023-08-12T04:03:53;18.10;99.90
38902;DHT22;24661;53.566;9.910;2023-08-12T04:06:18;18.10;99.90
38902;DHT22;24661;53.566;9.910;2023-08-12T04:08:44;18.10;99.90
38902;DHT22;24661;53.566;9.910;2023-08-12T04:11:09;18.20;99.90
38902;DHT22;24661;53.566;9.910;2023-08-12T04:13:35;18.10;99.90
38902;DHT22;24661;53.566;9.910;2023-08-12T04:16:01;18.10;99.90
38902;DHT22;24661;53.566;9.910;2023-08-12T04:18:26;18.10;99.90
38902;DHT22;24661;53.566;9.910;2023-08-12T04:20:52;18.20;99.90
38902;DHT22;24661;53.566;9.910;2023-08-12T04:23:18;18.20;99.90
38902;DHT22;24661;53.566;9.910;2023-08-12T04:25:46;18.20;99.90
38902;DHT22;24661;53.566;9.910;2023-08-12T04:28:12;18.20;99.90
38902;DHT22;24661;53.566;9.910;2023-08-12T04:30:45;18.20;99.90
38902;DHT22;24661;53.566;9.910;2023-08-12T04:33:12;18.30;99.90
38902;DHT22;24661;53.566;9.910;2023-08-12T04:35:42;18.30;99.90
38902;DHT22;24661;53.566;9.910;2023-08-12T04:38:07;18.30;99.90
38902;DHT22;24661;53.566;9.910;2023-08-12T04:40:33;18.30;99.90
38902;DHT22;24661;53.566;9.910;2023-08-12T04:42:59;18.30;99.90
38902;DHT22;24661;53.566;9.910;2023-08-12T04:45:25;18.30;99.90
38902;DHT22;24661;53.566;9.910;2023-08-12T04:47:51;18.40;99.90
38902;DHT22;24661;53.566;9.910;2023-08-12T04:50:17;18.50;99.90
38902;DHT22;24661;53.566;9.910;2023-08-12T04:52:42;18.50;99.90
38902;DHT22;24661;53.566;9.910;2023-08-12T04:55:08;18.50;99.90
38902;DHT22;24661;53.566;9.910;2023-08-12T04:57:36;18.60;99.90
38902;DHT22;24661;53.566;9.910;2023-08-12T05:00:02;18.60;99.90
38902;DHT22;24661;53.566;9.910;2023-08-12T05:02:27;18.60;99.90
38902;DHT22;24661;53.566;9.910;2023-08-12T05:04:53;18.60;99.90
38902;DHT22;24661;53.566;9.910;2023-08-12T05:07:18;18.60;99.90
38902;DHT22;24661;53.566;9.910;2023-08-12T05:09:44;18.60;99.90
38902;DHT22;24661;53.566;9.910;2023-08-12T05:12:10;18.60;99.90
38902;DHT22;24661;53.566;9.910;2023-08-12T05:14:37;18.70;99.90
38902;DHT22;24661;53.566;9.910;2023-08-12T05:17:02;18.70;99.90
38902;DHT22;24661;53.566;9.910;2023-08-12T05:19:28;18.60;99.90
38902;DHT22;24661;53.566;9.910;2023-08-12T05:21:53;18.60;99.90
38902;DHT22;24661;53.566;9.910;2023-08-12T05:24:19;18.60;99.90
38902;DHT22;24661;53.566;9.910;2023-08-12T05:26:45;18.50;99.90
38902;DHT22;24661;53.566;9.910;2023-08-12T05:29:10;18.60;99.90
38902;DHT22;24661;53.566;9.910;2023-08-12T05:31:36;18.70;99.90
38902;DHT22;24661;53.566;9.910;2023-08-12T05:34:02;18.60;99.90
38902;DHT22;24661;53.566;9.910;2023-08-12T05:36:28;18.50;99.90
38902;DHT22;24661;53.566;9.910;2023-08-12T05:38:54;18.60;99.90
38902;DHT22;24661;53.566;9.910;2023-08-12T05:41:20;18.50;99.90
38902;DHT22;24661;53.566;9.910;2023-08-12T05:43:45;18.50;99.90
38902;DHT22;24661;53.566;9.910;2023-08-12T05:46:11;18.60;99.90
38902;DHT22;24661;53.566;9.910;2023-08-12T05:48:37;18.50;99.90
38902;DHT22;24661;53.566;9.910;2023-08-12T05:51:02;18.50;99.90
38902;DHT22;24661;53.566;9.910;2023-08-12T05:53:28;18.50;99.90
38902;DHT22;24661;53.566;9.910;2023-08-12T05:55:53;18.50;99.90
38902;DHT22;24661;53.566;9.910;2023-08-12T05:58:19;18.50;99.90
38902;DHT22;24661;53.566;9.910;2023-08-12T06:00:46;18.50;99.90
38902;DHT22;24661;53.566;9.910;2023-08-12T06:03:12;18.50;99.90
38902;DHT22;24661;53.566;9.910;2023-08-12T06:05:39;18.50;99.90
38902;DHT22;24661;53.566;9.910;2023-08-12T06:08:05;18.50;99.90
38902;DHT22;24661;53.566;9.910;2023-08-12T06:10:31;18.50;99.90
38902;DHT22;24661;53.566;9.910;2023-08-12T06:12:56;18.50;99.90
38902;DHT22;24661;53.566;9.910;2023-08-12T06:15:22;18.70;99.90
38902;DHT22;24661;53.566;9.910;2023-08-12T06:17:47;18.50;99.90
38902;DHT22;24661;53.566;9.910;2023-08-12T06:20:13;18.40;99.90
38902;DHT22;24661;53.566;9.910;2023-08-12T06:22:39;18.50;99.90
38902;DHT22;24661;53.566;9.910;2023-08-12T06:25:04;18.50;99.90
38902;DHT22;24661;53.566;9.910;2023-08-12T06:27:30;18.30;99.90
38902;DHT22;24661;53.566;9.910;2023-08-12T06:29:55;18.40;99.90
38902;DHT22;24661;53.566;9.910;2023-08-12T06:32:21;18.40;99.90
38902;DHT22;24661;53.566;9.910;2023-08-12T06:34:46;18.50;99.90
38902;DHT22;24661;53.566;9.910;2023-08-12T06:37:12;18.50;99.90
38902;DHT22;24661;53.566;9.910;2023-08-12T06:39:38;18.50;99.90
38902;DHT22;24661;53.566;9.910;2023-08-12T06:42:03;18.50;99.90
38902;DHT22;24661;53.566;9.910;2023-08-12T06:44:30;18.50;99.90
38902;DHT22;24661;53.566;9.910;2023-08-12T06:46:55;18.50;99.90
38902;DHT22;24661;53.566;9.910;2023-08-12T06:49:21;18.40;99.90
38902;DHT22;24661;53.566;9.910;2023-08-12T06:51:46;18.60;99.90
38902;DHT22;24661;53.566;9.910;2023-08-12T06:54:12;18.60;99.90
38902;DHT22;24661;53.566;9.910;2023-08-12T06:56:38;18.70;99.90
38902;DHT22;24661;53.566;9.910;2023-08-12T06:59:03;18.80;99.90
38902;DHT22;24661;53.566;9.910;2023-08-12T07:01:29;18.80;99.90
38902;DHT22;24661;53.566;9.910;2023-08-12T07:03:54;18.90;99.90
38902;DHT22;24661;53.566;9.910;2023-08-12T07:06:20;19.00;99.90
38902;DHT22;24661;53.566;9.910;2023-08-12T07:08:46;19.10;99.90
38902;DHT22;24661;53.566;9.910;2023-08-12T07:11:11;19.20;99.90
38902;DHT22;24661;53.566;9.910;2023-08-12T07:13:37;19.20;99.90
38902;DHT22;24661;53.566;9.910;2023-08-12T07:16:02;19.30;99.90
38902;DHT22;24661;53.566;9.910;2023-08-12T07:18:28;19.40;99.90
38902;DHT22;24661;53.566;9.910;2023-08-12T07:20:54;19.50;99.90
38902;DHT22;24661;53.566;9.910;2023-08-12T07:23:20;19.40;99.90
38902;DHT22;24661;53.566;9.910;2023-08-12T07:25:49;19.40;99.90
38902;DHT22;24661;53.566;9.910;2023-08-12T07:28:14;19.60;99.90
38902;DHT22;24661;53.566;9.910;2023-08-12T07:30:40;19.70;99.90
38902;DHT22;24661;53.566;9.910;2023-08-12T07:33:06;19.80;99.90
38902;DHT22;24661;53.566;9.910;2023-08-12T07:35:32;19.90;99.90
38902;DHT22;24661;53.566;9.910;2023-08-12T07:37:57;19.90;99.90
38902;DHT22;24661;53.566;9.910;2023-08-12T07:40:23;20.00;99.90
38902;DHT22;24661;53.566;9.910;2023-08-12T07:42:48;20.10;99.90
38902;DHT22;24661;53.566;9.910;2023-08-12T07:45:14;20.10;99.90
38902;DHT22;24661;53.566;9.910;2023-08-12T07:47:40;20.20;99.90
38902;DHT22;24661;53.566;9.910;2023-08-12T07:50:06;20.20;99.90
38902;DHT22;24661;53.566;9.910;2023-08-12T07:52:31;20.30;99.90
38902;DHT22;24661;53.566;9.910;2023-08-12T07:54:57;20.30;99.90
38902;DHT22;24661;53.566;9.910;2023-08-12T07:57:22;20.40;99.90
38902;DHT22;24661;53.566;9.910;2023-08-12T07:59:52;20.50;99.90
38902;DHT22;24661;53.566;9.910;2023-08-12T08:02:18;20.60;99.90
38902;DHT22;24661;53.566;9.910;2023-08-12T08:04:43;20.80;99.90
38902;DHT22;24661;53.566;9.910;2023-08-12T08:07:10;19.50;99.90
38902;DHT22;24661;53.566;9.910;2023-08-12T08:09:36;21.00;99.90
38902;DHT22;24661;53.566;9.910;2023-08-12T08:12:01;21.20;99.90
38902;DHT22;24661;53.566;9.910;2023-08-12T08:14:27;21.20;99.90
38902;DHT22;24661;53.566;9.910;2023-08-12T08:16:53;21.20;99.90
38902;DHT22;24661;53.566;9.910;2023-08-12T08:19:18;21.20;99.90
38902;DHT22;24661;53.566;9.910;2023-08-12T08:21:44;21.20;99.90
38902;DHT22;24661;53.566;9.910;2023-08-12T08:24:10;21.40;99.90
38902;DHT22;24661;53.566;9.910;2023-08-12T08:26:38;21.50;99.90
38902;DHT22;24661;53.566;9.910;2023-08-12T08:29:04;21.60;99.90
38902;DHT22;24661;53.566;9.910;2023-08-12T08:31:29;21.70;99.90
38902;DHT22;24661;53.566;9.910;2023-08-12T08:33:55;21.70;99.90
38902;DHT22;24661;53.566;9.910;2023-08-12T08:36:21;21.80;99.90
38902;DHT22;24661;53.566;9.910;2023-08-12T08:38:46;21.80;99.90
38902;DHT22;24661;53.566;9.910;2023-08-12T08:41:12;21.80;99.90
38902;DHT22;24661;53.566;9.910;2023-08-12T08:43:42;21.90;99.90
38902;DHT22;24661;53.566;9.910;2023-08-12T08:46:09;21.90;99.90
38902;DHT22;24661;53.566;9.910;2023-08-12T08:48:36;21.90;99.90
38902;DHT22;24661;53.566;9.910;2023-08-12T08:51:02;21.90;99.90
38902;DHT22;24661;53.566;9.910;2023-08-12T08:53:28;21.90;99.90
38902;DHT22;24661;53.566;9.910;2023-08-12T08:55:55;22.00;99.90
38902;DHT22;24661;53.566;9.910;2023-08-12T08:58:21;22.00;99.90
38902;DHT22;24661;53.566;9.910;2023-08-12T09:00:47;22.00;99.90
38902;DHT22;24661;53.566;9.910;2023-08-12T09:03:13;22.00;99.90
38902;DHT22;24661;53.566;9.910;2023-08-12T09:05:40;22.00;99.90
38902;DHT22;24661;53.566;9.910;2023-08-12T09:08:07;22.10;99.90
38902;DHT22;24661;53.566;9.910;2023-08-12T09:10:38;22.10;99.90
38902;DHT22;24661;53.566;9.910;2023-08-12T09:13:06;22.00;99.90
38902;DHT22;24661;53.566;9.910;2023-08-12T09:15:32;22.00;99.90
38902;DHT22;24661;53.566;9.910;2023-08-12T09:17:57;21.90;99.90
38902;DHT22;24661;53.566;9.910;2023-08-12T09:20:23;21.80;99.90
38902;DHT22;24661;53.566;9.910;2023-08-12T09:22:58;21.90;99.90
38902;DHT22;24661;53.566;9.910;2023-08-12T09:25:28;21.70;99.90
38902;DHT22;24661;53.566;9.910;2023-08-12T09:27:55;21.70;99.90
38902;DHT22;24661;53.566;9.910;2023-08-12T09:30:21;21.60;99.90
38902;DHT22;24661;53.566;9.910;2023-08-12T09:33:04;21.50;99.90
38902;DHT22;24661;53.566;9.910;2023-08-12T09:35:40;21.50;99.90
38902;DHT22;24661;53.566;9.910;2023-08-12T09:38:10;21.50;99.90
38902;DHT22;24661;53.566;9.910;2023-08-12T09:40:37;21.40;99.90
38902;DHT22;24661;53.566;9.910;2023-08-12T09:43:03;20.60;99.90
38902;DHT22;24661;53.566;9.910;2023-08-12T09:45:30;21.30;99.90
38902;DHT22;24661;53.566;9.910;2023-08-12T09:47:56;21.50;99.90
38902;DHT22;24661;53.566;9.910;2023-08-12T09:50:23;21.40;99.90
38902;DHT22;24661;53.566;9.910;2023-08-12T09:52:49;21.40;99.90
38902;DHT22;24661;53.566;9.910;2023-08-12T09:55:16;21.30;99.90
38902;DHT22;24661;53.566;9.910;2023-08-12T09:57:44;21.30;99.90
38902;DHT22;24661;53.566;9.910;2023-08-12T10:00:13;21.40;99.90
38902;DHT22;24661;53.566;9.910;2023-08-12T10:02:43;21.50;99.90
38902;DHT22;24661;53.566;9.910;2023-08-12T10:05:12;21.50;99.90
38902;DHT22;24661;53.566;9.910;2023-08-12T10:07:39;21.60;99.90
38902;DHT22;24661;53.566;9.910;2023-08-12T10:10:05;21.60;99.90
38902;DHT22;24661;53.566;9.910;2023-08-12T10:12:33;21.60;99.90
38902;DHT22;24661;53.566;9.910;2023-08-12T10:15:00;21.50;99.90
38902;DHT22;24661;53.566;9.910;2023-08-12T10:17:26;21.60;99.90
38902;DHT22;24661;53.566;9.910;2023-08-12T10:19:56;21.60;99.90
38902;DHT22;24661;53.566;9.910;2023-08-12T10:22:25;21.70;99.90
38902;DHT22;24661;53.566;9.910;2023-08-12T10:24:51;21.80;99.90
38902;DHT22;24661;53.566;9.910;2023-08-12T10:27:18;21.80;99.90
38902;DHT22;24661;53.566;9.910;2023-08-12T10:29:43;21.80;99.90
38902;DHT22;24661;53.566;9.910;2023-08-12T10:32:09;21.90;99.90
38902;DHT22;24661;53.566;9.910;2023-08-12T10:34:35;21.90;99.90
38902;DHT22;24661;53.566;9.910;2023-08-12T10:37:02;22.00;99.90
38902;DHT22;24661;53.566;9.910;2023-08-12T10:39:29;22.00;99.90
38902;DHT22;24661;53.566;9.910;2023-08-12T10:41:55;22.10;99.90
38902;DHT22;24661;53.566;9.910;2023-08-12T10:44:22;22.20;99.90
38902;DHT22;24661;53.566;9.910;2023-08-12T10:46:52;22.30;99.90
38902;DHT22;24661;53.566;9.910;2023-08-12T10:49:19;22.20;99.90
38902;DHT22;24661;53.566;9.910;2023-08-12T10:51:47;22.20;99.90
38902;DHT22;24661;53.566;9.910;2023-08-12T10:54:25;22.20;99.90
38902;DHT22;24661;53.566;9.910;2023-08-12T10:59:53;22.10;99.90
38902;DHT22;24661;53.566;9.910;2023-08-12T11:02:28;22.00;99.90
38902;DHT22;24661;53.566;9.910;2023-08-12T11:05:13;22.00;99.90
38902;DHT22;24661;53.566;9.910;2023-08-12T11:07:46;22.00;99.90
38902;DHT22;24661;53.566;9.910;2023-08-12T11:10:27;22.20;99.90
38902;DHT22;24661;53.566;9.910;2023-08-12T11:12:54;22.30;99.90
38902;DHT22;24661;53.566;9.910;2023-08-12T11:15:34;22.50;99.90
38902;DHT22;24661;53.566;9.910;2023-08-12T11:18:06;22.60;99.90
38902;DHT22;24661;53.566;9.910;2023-08-12T11:20:34;22.70;99.90
38902;DHT22;24661;53.566;9.910;2023-08-12T11:23:00;22.70;99.90
38902;DHT22;24661;53.566;9.910;2023-08-12T11:25:28;22.60;99.90
38902;DHT22;24661;53.566;9.910;2023-08-12T11:27:55;22.60;99.90
38902;DHT22;24661;53.566;9.910;2023-08-12T11:30:21;22.50;99.90
38902;DHT22;24661;53.566;9.910;2023-08-12T11:32:54;22.50;99.90
38902;DHT22;24661;53.566;9.910;2023-08-12T11:35:21;22.40;99.90
38902;DHT22;24661;53.566;9.910;2023-08-12T11:37:49;22.30;99.90
38902;DHT22;24661;53.566;9.910;2023-08-12T11:40:17;22.20;99.90
38902;DHT22;24661;53.566;9.910;2023-08-12T11:42:47;22.00;99.90
38902;DHT22;24661;53.566;9.910;2023-08-12T11:45:17;21.80;99.90
38902;DHT22;24661;53.566;9.910;2023-08-12T11:47:43;21.70;99.90
38902;DHT22;24661;53.566;9.910;2023-08-12T11:50:11;21.60;99.90
38902;DHT22;24661;53.566;9.910;2023-08-12T11:52:38;21.50;99.90
38902;DHT22;24661;53.566;9.910;2023-08-12T11:55:05;21.50;99.90
38902;DHT22;24661;53.566;9.910;2023-08-12T11:57:32;21.40;99.90
38902;DHT22;24661;53.566;9.910;2023-08-12T12:00:10;21.30;99.90
38902;DHT22;24661;53.566;9.910;2023-08-12T12:02:53;21.10;99.90
38902;DHT22;24661;53.566;9.910;2023-08-12T12:05:22;21.00;99.90
38902;DHT22;24661;53.566;9.910;2023-08-12T12:07:49;20.90;99.90
38902;DHT22;24661;53.566;9.910;2023-08-12T12:10:19;20.90;99.90
38902;DHT22;24661;53.566;9.910;2023-08-12T12:12:46;20.80;99.90
38902;DHT22;24661;53.566;9.910;2023-08-12T12:15:13;20.70;99.90
38902;DHT22;24661;53.566;9.910;2023-08-12T12:17:42;20.70;99.90
38902;DHT22;24661;53.566;9.910;2023-08-12T12:20:08;20.60;99.90
38902;DHT22;24661;53.566;9.910;2023-08-12T12:22:37;20.50;99.90
38902;DHT22;24661;53.566;9.910;2023-08-12T12:25:08;20.50;99.90
38902;DHT22;24661;53.566;9.910;2023-08-12T12:27:34;20.50;99.90
38902;DHT22;24661;53.566;9.910;2023-08-12T12:30:01;20.50;99.90
38902;DHT22;24661;53.566;9.910;2023-08-12T12:32:27;20.50;99.90
38902;DHT22;24661;53.566;9.910;2023-08-12T12:34:52;20.50;99.90
38902;DHT22;24661;53.566;9.910;2023-08-12T12:37:20;20.60;99.90
38902;DHT22;24661;53.566;9.910;2023-08-12T12:39:46;20.60;99.90
38902;DHT22;24661;53.566;9.910;2023-08-12T12:42:12;20.70;99.90
38902;DHT22;24661;53.566;9.910;2023-08-12T12:44:37;20.60;99.90
38902;DHT22;24661;53.566;9.910;2023-08-12T12:47:03;20.80;99.90
38902;DHT22;24661;53.566;9.910;2023-08-12T12:49:29;20.80;99.90
38902;DHT22;24661;53.566;9.910;2023-08-12T12:51:54;20.80;99.90
38902;DHT22;24661;53.566;9.910;2023-08-12T12:54:20;20.80;99.90
38902;DHT22;24661;53.566;9.910;2023-08-12T12:56:46;20.80;99.90
38902;DHT22;24661;53.566;9.910;2023-08-12T12:59:11;20.70;99.90
38902;DHT22;24661;53.566;9.910;2023-08-12T13:01:37;20.70;99.90
38902;DHT22;24661;53.566;9.910;2023-08-12T13:04:03;20.60;99.90
38902;DHT22;24661;53.566;9.910;2023-08-12T13:06:28;20.50;99.90
38902;DHT22;24661;53.566;9.910;2023-08-12T13:08:54;20.50;99.90
38902;DHT22;24661;53.566;9.910;2023-08-12T13:11:20;20.70;99.90
38902;DHT22;24661;53.566;9.910;2023-08-12T13:13:45;20.70;99.90
38902;DHT22;24661;53.566;9.910;2023-08-12T13:16:11;20.70;99.90
38902;DHT22;24661;53.566;9.910;2023-08-12T13:18:37;20.80;99.90
38902;DHT22;24661;53.566;9.910;2023-08-12T13:21:02;20.90;99.90
38902;DHT22;24661;53.566;9.910;2023-08-12T13:23:28;20.90;99.90
38902;DHT22;24661;53.566;9.910;2023-08-12T13:25:54;21.00;99.90
38902;DHT22;24661;53.566;9.910;2023-08-12T13:28:19;21.10;99.90
38902;DHT22;24661;53.566;9.910;2023-08-12T13:30:45;21.10;99.90
38902;DHT22;24661;53.566;9.910;2023-08-12T13:33:12;21.20;99.90
38902;DHT22;24661;53.566;9.910;2023-08-12T13:35:38;21.20;99.90
38902;DHT22;24661;53.566;9.910;2023-08-12T13:38:03;21.40;99.90
38902;DHT22;24661;53.566;9.910;2023-08-12T13:40:29;20.50;99.90
38902;DHT22;24661;53.566;9.910;2023-08-12T13:42:55;21.60;99.90
38902;DHT22;24661;53.566;9.910;2023-08-12T13:45:21;21.90;99.90
38902;DHT22;24661;53.566;9.910;2023-08-12T13:47:47;21.70;99.90
38902;DHT22;24661;53.566;9.910;2023-08-12T13:50:13;21.70;99.90
38902;DHT22;24661;53.566;9.910;2023-08-12T13:52:39;21.70;99.90
38902;DHT22;24661;53.566;9.910;2023-08-12T13:55:05;21.70;99.90
38902;DHT22;24661;53.566;9.910;2023-08-12T13:57:31;21.70;99.90
38902;DHT22;24661;53.566;9.910;2023-08-12T13:59:56;21.70;99.90
38902;DHT22;24661;53.566;9.910;2023-08-12T14:02:22;21.70;99.90
38902;DHT22;24661;53.566;9.910;2023-08-12T14:04:48;21.60;99.90
38902;DHT22;24661;53.566;9.910;2023-08-12T14:07:13;21.70;99.90
38902;DHT22;24661;53.566;9.910;2023-08-12T14:09:39;21.70;99.90
38902;DHT22;24661;53.566;9.910;2023-08-12T14:12:05;21.60;99.90
38902;DHT22;24661;53.566;9.910;2023-08-12T14:14:30;21.60;99.90
38902;DHT22;24661;53.566;9.910;2023-08-12T14:16:56;21.50;99.90
38902;DHT22;24661;53.566;9.910;2023-08-12T14:19:22;21.70;99.90
38902;DHT22;24661;53.566;9.910;2023-08-12T14:21:47;21.70;99.90
38902;DHT22;24661;53.566;9.910;2023-08-12T14:24:13;21.80;99.90
38902;DHT22;24661;53.566;9.910;2023-08-12T14:26:39;21.80;99.90
38902;DHT22;24661;53.566;9.910;2023-08-12T14:29:05;21.80;99.90
38902;DHT22;24661;53.566;9.910;2023-08-12T14:31:31;21.70;99.90
38902;DHT22;24661;53.566;9.910;2023-08-12T14:33:57;21.70;99.90
38902;DHT22;24661;53.566;9.910;2023-08-12T14:36:23;21.60;99.90
38902;DHT22;24661;53.566;9.910;2023-08-12T14:38:50;21.40;99.90
38902;DHT22;24661;53.566;9.910;2023-08-12T14:41:16;21.40;99.90
38902;DHT22;24661;53.566;9.910;2023-08-12T14:43:41;21.40;99.90
38902;DHT22;24661;53.566;9.910;2023-08-12T14:46:07;21.40;99.90
38902;DHT22;24661;53.566;9.910;2023-08-12T14:48:33;20.80;99.90
38902;DHT22;24661;53.566;9.910;2023-08-12T14:50:58;19.90;99.90
38902;DHT22;24661;53.566;9.910;2023-08-12T14:53:25;21.30;99.90
38902;DHT22;24661;53.566;9.910;2023-08-12T14:55:50;19.80;99.90
38902;DHT22;24661;53.566;9.910;2023-08-12T14:58:16;21.30;99.90
38902;DHT22;24661;53.566;9.910;2023-08-12T15:00:42;21.50;99.90
38902;DHT22;24661;53.566;9.910;2023-08-12T15:03:07;21.30;99.90
38902;DHT22;24661;53.566;9.910;2023-08-12T15:05:33;21.20;99.90
38902;DHT22;24661;53.566;9.910;2023-08-12T15:07:59;21.20;99.90
38902;DHT22;24661;53.566;9.910;2023-08-12T15:10:24;21.10;99.90
38902;DHT22;24661;53.566;9.910;2023-08-12T15:12:50;21.00;99.90
38902;DHT22;24661;53.566;9.910;2023-08-12T15:15:16;21.00;99.90
38902;DHT22;24661;53.566;9.910;2023-08-12T15:17:41;21.10;99.90
38902;DHT22;24661;53.566;9.910;2023-08-12T15:20:07;21.00;99.90
38902;DHT22;24661;53.566;9.910;2023-08-12T15:22:35;21.00;99.90
38902;DHT22;24661;53.566;9.910;2023-08-12T15:25:01;21.10;99.90
38902;DHT22;24661;53.566;9.910;2023-08-12T15:27:27;21.00;99.90
38902;DHT22;24661;53.566;9.910;2023-08-12T15:29:53;20.90;99.90
38902;DHT22;24661;53.566;9.910;2023-08-12T15:32:19;21.00;99.90